createdAt,value
2019-02-06T00:02:14.709Z,83.83
2019-02-06T00:07:18.173Z,83.89
2019-02-06T00:12:19.760Z,83.21
2019-02-06T00:17:24.456Z,83.16
2019-02-06T00:22:26.191Z,83.86
2019-02-06T00:27:27.777Z,84.00
2019-02-06T00:32:29.198Z,83.59
2019-02-06T00:37:30.423Z,83.38
2019-02-06T00:42:34.287Z,84.03
2019-02-06T00:47:36.663Z,83.77
2019-02-06T00:52:38.320Z,83.88
2019-02-06T00:57:40.529Z,84.24
2019-02-06T01:02:41.849Z,84.63
2019-02-06T01:07:44.818Z,84.22
2019-02-06T01:12:46.642Z,84.73
2019-02-06T01:17:49.041Z,84.94
2019-02-06T01:22:50.659Z,85.15
2019-02-06T01:27:52.021Z,85.48
2019-02-06T01:32:53.341Z,85.12
2019-02-06T01:37:54.601Z,85.37
2019-02-06T01:42:56.057Z,85.07
2019-02-06T01:47:57.878Z,84.55
2019-02-06T01:52:59.081Z,84.56
2019-02-06T01:58:00.278Z,84.45
2019-02-06T02:03:01.579Z,84.69
2019-02-06T02:08:03.286Z,84.06
2019-02-06T02:13:04.506Z,84.16
2019-02-06T02:18:05.940Z,84.29
2019-02-06T02:23:07.301Z,84.22
2019-02-06T02:28:10.248Z,83.79
2019-02-06T02:33:11.714Z,84.38
2019-02-06T02:38:13.005Z,84.13
2019-02-06T02:43:14.385Z,84.67
2019-02-06T02:48:15.823Z,84.34
2019-02-06T02:53:17.074Z,83.13
2019-02-06T02:58:19.586Z,82.21
2019-02-06T03:03:37.961Z,82.04
2019-02-06T03:08:39.208Z,82.17
2019-02-06T03:13:40.486Z,82.29
2019-02-06T03:18:41.673Z,80.91
2019-02-06T03:23:43.584Z,80.28
2019-02-06T03:28:45.058Z,79.67
2019-02-06T03:33:46.376Z,80.25
2019-02-06T03:38:47.835Z,80.29
2019-02-06T03:43:49.020Z,80.50
2019-02-06T03:48:51.305Z,80.89
2019-02-06T03:53:53.608Z,80.85
2019-02-06T03:58:54.835Z,81.74
2019-02-06T04:03:56.386Z,81.74
2019-02-06T04:08:57.683Z,81.47
2019-02-06T04:13:59.114Z,82.10
2019-02-06T04:19:00.353Z,83.28
2019-02-06T04:24:01.760Z,83.67
2019-02-06T04:29:03.199Z,83.42
2019-02-06T04:34:04.431Z,83.61
2019-02-06T04:39:06.320Z,83.01
2019-02-06T04:44:08.047Z,83.80
2019-02-06T04:49:09.528Z,83.37
2019-02-06T04:54:10.762Z,82.97
2019-02-06T04:59:12.441Z,83.46
2019-02-06T05:04:13.608Z,83.85
2019-02-06T05:09:15.142Z,83.66
2019-02-06T05:14:16.424Z,84.30
2019-02-06T05:19:17.769Z,83.77
2019-02-06T05:24:18.961Z,83.27
2019-02-06T05:29:20.177Z,83.14
2019-02-06T05:34:21.655Z,82.72
2019-02-06T05:39:22.958Z,82.44
2019-02-06T05:44:24.170Z,82.67
2019-02-06T05:49:27.098Z,83.14
2019-02-06T05:54:28.652Z,83.04
2019-02-06T05:59:30.079Z,82.44
2019-02-06T06:04:31.455Z,82.65
2019-02-06T06:09:33.358Z,83.10
2019-02-06T06:14:34.994Z,82.78
2019-02-06T06:19:36.196Z,82.58
2019-02-06T06:24:37.988Z,82.67
2019-02-06T06:29:39.263Z,82.97
2019-02-06T06:34:40.464Z,83.10
2019-02-06T06:39:41.624Z,83.16
2019-02-06T06:44:42.914Z,82.97
2019-02-06T06:49:44.625Z,82.58
2019-02-06T06:54:45.830Z,81.91
2019-02-06T06:59:47.136Z,80.02
2019-02-06T07:04:48.888Z,79.38
2019-02-06T07:09:50.090Z,79.58
2019-02-06T07:14:51.277Z,79.24
2019-02-06T07:19:52.427Z,78.76
2019-02-06T07:24:53.855Z,78.12
2019-02-06T07:29:55.085Z,77.34
2019-02-06T07:34:56.150Z,76.52
2019-02-06T07:39:57.442Z,75.87
2019-02-06T07:44:58.881Z,75.33
2019-02-06T07:50:00.454Z,75.48
2019-02-06T07:55:01.948Z,73.05
2019-02-06T08:00:06.840Z,72.68
2019-02-06T08:05:18.951Z,71.58
2019-02-06T08:10:28.130Z,71.42
2019-02-06T08:15:29.430Z,71.61
2019-02-06T08:20:30.675Z,71.25
2019-02-06T08:25:31.812Z,70.21
2019-02-06T08:30:37.999Z,69.51
2019-02-06T08:35:39.504Z,69.55
2019-02-06T08:40:40.829Z,68.52
2019-02-06T08:45:42.119Z,67.73
2019-02-06T08:50:43.570Z,67.80
2019-02-06T08:55:44.933Z,64.40
2019-02-06T09:00:46.083Z,62.80
2019-02-06T09:05:47.652Z,60.29
2019-02-06T09:10:49.001Z,59.01
2019-02-06T09:15:50.275Z,52.71
2019-02-06T09:20:52.848Z,51.29
2019-02-06T09:25:58.928Z,51.37
2019-02-06T09:31:01.445Z,49.73
2019-02-06T09:36:03.645Z,47.14
2019-02-06T09:41:05.087Z,46.23
2019-02-06T09:46:06.405Z,41.49
2019-02-06T09:51:07.827Z,42.43
2019-02-06T09:56:11.260Z,42.17
2019-02-06T10:01:13.631Z,40.23
2019-02-06T10:06:15.328Z,43.72
2019-02-06T10:11:16.709Z,42.76
2019-02-06T10:16:20.129Z,44.31
2019-02-06T10:21:21.198Z,43.80
2019-02-06T10:26:22.607Z,43.80
2019-02-06T10:31:23.913Z,43.60
2019-02-06T10:36:25.352Z,45.46
2019-02-06T10:41:26.496Z,43.24
2019-02-06T10:46:29.464Z,40.47
2019-02-06T10:51:30.790Z,38.95
2019-02-06T10:56:32.072Z,37.58
2019-02-06T11:01:33.252Z,38.39
2019-02-06T11:06:35.195Z,42.18
2019-02-06T11:11:36.333Z,43.09
2019-02-06T11:16:40.602Z,43.03
2019-02-06T11:21:49.283Z,40.74
2019-02-06T11:26:57.563Z,39.54
2019-02-06T11:32:01.321Z,36.67
2019-02-06T11:37:02.846Z,38.71
2019-02-06T11:42:06.797Z,36.64
2019-02-06T11:47:08.399Z,36.13
2019-02-06T11:52:13.628Z,37.17
2019-02-06T11:57:17.672Z,35.90
2019-02-06T12:02:20.983Z,35.92
2019-02-06T12:07:22.384Z,36.65
2019-02-06T12:12:24.118Z,36.97
2019-02-06T12:17:25.644Z,32.83
2019-02-06T12:22:26.780Z,32.12
2019-02-06T12:27:28.223Z,30.58
2019-02-06T12:32:30.126Z,30.30
2019-02-06T12:37:32.006Z,31.08
2019-02-06T12:42:35.523Z,31.61
2019-02-06T12:47:37.141Z,33.53
2019-02-06T12:52:38.847Z,33.63
2019-02-06T12:57:40.246Z,35.25
2019-02-06T13:02:41.806Z,36.16
2019-02-06T13:07:43.930Z,36.15
2019-02-06T13:12:45.397Z,34.74
2019-02-06T13:17:47.507Z,34.36
2019-02-06T13:22:49.433Z,35.14
2019-02-06T13:27:51.904Z,34.80
2019-02-06T13:32:53.690Z,35.98
2019-02-06T13:37:57.690Z,35.96
2019-02-06T13:42:59.055Z,36.49
2019-02-06T13:48:00.714Z,36.58
2019-02-06T13:53:02.230Z,37.59
2019-02-06T13:58:05.431Z,38.15
2019-02-06T14:03:06.842Z,37.80
2019-02-06T14:08:11.607Z,37.65
2019-02-06T14:13:12.991Z,37.73
2019-02-06T14:18:14.689Z,37.11
2019-02-06T14:23:29.022Z,37.73
2019-02-06T14:28:57.299Z,38.11
2019-02-06T14:34:12.068Z,38.16
2019-02-06T14:39:33.658Z,38.62
2019-02-06T14:44:57.152Z,37.46
2019-02-06T14:50:11.640Z,38.39
2019-02-06T14:55:30.123Z,38.15
2019-02-06T15:00:59.905Z,38.75
2019-02-06T15:06:12.900Z,38.37
2019-02-06T15:11:24.062Z,38.33
2019-02-06T15:16:46.401Z,37.95
2019-02-06T15:21:51.607Z,38.48
2019-02-06T15:27:13.648Z,39.71
2019-02-06T15:32:33.987Z,41.05
2019-02-06T15:37:57.012Z,42.15
2019-02-06T15:43:02.072Z,42.92
2019-02-06T15:48:24.247Z,44.23
2019-02-06T15:53:36.373Z,45.14
2019-02-06T15:58:58.417Z,45.16
2019-02-06T16:04:34.876Z,45.95
2019-02-06T16:09:55.531Z,46.97
2019-02-06T16:15:03.673Z,48.70
2019-02-06T16:20:28.268Z,49.45
2019-02-06T16:25:37.762Z,50.01
2019-02-06T16:30:57.684Z,51.22
2019-02-06T16:36:11.488Z,52.25
2019-02-06T16:41:37.894Z,53.05
2019-02-06T16:47:05.903Z,54.51
2019-02-06T16:52:17.910Z,56.21
2019-02-06T16:57:35.344Z,55.90
2019-02-06T17:02:43.385Z,57.06
2019-02-06T17:07:54.808Z,58.03
2019-02-06T17:13:20.877Z,59.57
2019-02-06T17:18:42.891Z,61.45
2019-02-06T17:23:50.943Z,62.18
2019-02-06T17:28:59.358Z,62.99
2019-02-06T17:34:22.928Z,64.41
2019-02-06T17:39:58.790Z,64.38
2019-02-06T17:45:13.189Z,65.37
2019-02-06T17:50:27.130Z,66.24
2019-02-06T17:55:29.799Z,65.93
2019-02-06T18:00:37.995Z,67.03
2019-02-06T18:05:40.335Z,67.72
2019-02-06T18:10:41.993Z,68.86
2019-02-06T18:15:43.630Z,69.01
2019-02-06T18:20:44.930Z,68.86
2019-02-06T18:25:46.633Z,68.49
2019-02-06T18:30:48.129Z,68.41
2019-02-06T18:35:49.564Z,68.84
2019-02-06T18:40:50.839Z,69.40
2019-02-06T18:45:52.480Z,69.26
2019-02-06T18:50:54.433Z,69.37
2019-02-06T18:55:56.032Z,68.06
2019-02-06T19:00:57.486Z,66.89
2019-02-06T19:05:59.927Z,66.94
2019-02-06T19:11:01.841Z,68.53
2019-02-06T19:16:06.648Z,69.26
2019-02-06T19:21:08.611Z,70.25
2019-02-06T19:26:10.707Z,70.25
2019-02-06T19:31:12.503Z,71.44
2019-02-06T19:36:14.071Z,72.25
2019-02-06T19:41:15.912Z,73.64
2019-02-06T19:46:17.714Z,72.09
2019-02-06T19:51:19.434Z,71.52
2019-02-06T19:56:21.021Z,70.91
2019-02-06T20:01:22.860Z,72.39
2019-02-06T20:06:26.217Z,73.44
2019-02-06T20:11:28.486Z,74.90
2019-02-06T20:16:29.985Z,74.24
2019-02-06T20:21:31.583Z,74.83
2019-02-06T20:26:33.303Z,75.41
2019-02-06T20:31:34.832Z,76.21
2019-02-06T20:36:36.294Z,76.81
2019-02-06T20:41:38.307Z,76.99
2019-02-06T20:46:39.516Z,76.60
2019-02-06T20:51:41.124Z,76.83
2019-02-06T20:56:42.869Z,78.03
2019-02-06T21:01:44.861Z,77.41
2019-02-06T21:06:46.247Z,77.37
2019-02-06T21:11:47.447Z,77.76
2019-02-06T21:16:48.829Z,78.26
2019-02-06T21:21:50.346Z,79.18
2019-02-06T21:26:51.794Z,79.51
2019-02-06T21:31:53.397Z,78.32
2019-02-06T21:36:56.108Z,78.02
2019-02-06T21:41:57.672Z,78.46
2019-02-06T21:46:59.340Z,79.14
2019-02-06T21:52:00.840Z,79.03
2019-02-06T21:57:02.183Z,79.18
2019-02-06T22:02:03.504Z,78.89
2019-02-06T22:07:04.839Z,77.83
2019-02-06T22:12:06.355Z,76.01
2019-02-06T22:17:07.647Z,75.27
2019-02-06T22:22:09.059Z,76.26
2019-02-06T22:27:10.602Z,77.32
2019-02-06T22:32:12.261Z,77.57
2019-02-06T22:37:13.474Z,77.53
2019-02-06T22:42:14.888Z,78.18
2019-02-06T22:47:16.350Z,78.55
2019-02-06T22:52:17.657Z,78.23
2019-02-06T22:57:19.193Z,78.73
2019-02-06T23:02:20.383Z,79.52
2019-02-06T23:07:21.874Z,79.15
2019-02-06T23:12:23.765Z,78.31
2019-02-06T23:17:25.227Z,78.16
2019-02-06T23:22:26.878Z,76.40
2019-02-06T23:27:28.360Z,76.40
2019-02-06T23:32:29.763Z,76.86
2019-02-06T23:37:31.563Z,76.73
2019-02-06T23:42:32.962Z,77.31
2019-02-06T23:47:34.474Z,77.75
2019-02-06T23:52:35.971Z,77.38
2019-02-06T23:57:37.104Z,77.48
